7XS4 weather

Durwood Greene Construction Company Heliport
Stafford, Texas, United States

Public forecast

Using degrees Fahrenheit for public forecast. Weather courtesy of forecast.io.

METAR (pilot weather report)

Closest report is Sugar Land Regional Airport, 5.2 nm (9.7 km) W. Retrieved 2019/07/21 09:53 UTC (42 minutes ago):

KSGR 210953Z AUTO 16003KT 10SM CLR 26/25 A2995 RMK AO2 SLP141 T02610250

TAF (pilot weather forecast)

Closest forecast is Sugar Land Regional Airport, 5.2 nm (9.7 km) W. Retrieved 2019/07/21 06:22 UTC (4 hours ago):

TAF KSGR 210520Z 2106/2206 17008KT P6SM SCT250 FM211600 19006KT P6SM VCSH SCT025 BKN035 FM211800 18009KT P6SM VCTS SCT040CB PROB30 2119/2123 VRB10G27KT TSRA BKN035CB OVC090 FM212300 VRB06KT P6SM VCSH SCT040 BKN080 OVC250 FM220100 18005KT P6SM SCT250